
Distance (Route):
Temperature : -4.9°C
Humidity : 116.5%
Pressure : 0hPa| Receiver | Frames | First received | Last received |
|---|---|---|---|
| KE7DJD | 170 | 2026-09-05 17:03:10 | 2026-09-05 19:25:31 |
| Receiver | Date | Latitude | Longitude | Direction | Speed | Altitude | Climb | Temperature | Humidity | Pressure | Voltage | Killtimer | Uptime | BKT | XDATA |
|---|---|---|---|---|---|---|---|---|---|---|---|---|---|---|---|
| KE7DJD | 2026-09-05 19:25:31 | 44.75624 | -115.42951 | 357° | 47km/h | 4121m | -4.1m/s | -4.9°C | 116.5% | 0hPa | 0V | 07:49:00 | 00:00:00 | 00:00:00 | |
| KE7DJD | 2026-09-05 19:25:11 | 44.75377 | -115.42940 | 2° | 49km/h | 4214m | -5.1m/s | -6.0°C | 111.9% | 0hPa | 0V | 07:49:00 | 00:00:00 | 00:00:00 | |
| KE7DJD | 2026-09-05 19:24:51 | 44.75111 | -115.42956 | 3° | 55km/h | 4334m | -6.8m/s | -7.2°C | 114.9% | 0hPa | 0V | 07:50:00 | 00:00:00 | 00:00:00 | |
| KE7DJD | 2026-09-05 19:24:31 | 44.74821 | -115.43007 | 8° | 64km/h | 4452m | -7.1m/s | -7.0°C | 115.6% | 0hPa | 0V | 07:50:00 | 00:00:00 | 00:00:00 | |
| KE7DJD | 2026-09-05 19:23:50 | 44.74127 | -115.43208 | 11° | 68km/h | 4714m | -5.4m/s | -9.5°C | 84.0% | 0hPa | 0V | 07:51:00 | 00:00:00 | 00:00:00 | |
| KE7DJD | 2026-09-05 19:23:29 | 44.73775 | -115.43289 | 8° | 66km/h | 4827m | -5.2m/s | -10.4°C | 82.0% | 0hPa | 0V | 07:51:00 | 00:00:00 | 00:00:00 | |
| KE7DJD | 2026-09-05 19:23:08 | 44.73431 | -115.43392 | 13° | 66km/h | 4943m | -5.4m/s | -11.1°C | 64.1% | 0hPa | 0V | 07:52:00 | 00:00:00 | 00:00:00 | |
| KE7DJD | 2026-09-05 19:22:48 | 44.73109 | -115.43520 | 23° | 66km/h | 5049m | -5.4m/s | -10.5°C | 13.0% | 0hPa | 0V | 07:52:00 | 00:00:00 | 00:00:00 | |
| KE7DJD | 2026-09-05 19:22:27 | 44.72799 | -115.43712 | 25° | 62km/h | 5159m | -4.9m/s | -10.8°C | 13.2% | 0hPa | 0V | 07:52:00 | 00:00:00 | 00:00:00 | |
| KE7DJD | 2026-09-05 19:22:07 | 44.72508 | -115.43929 | 29° | 66km/h | 5265m | -5.1m/s | -11.3°C | 14.4% | 0hPa | 0V | 07:53:00 | 00:00:00 | 00:00:00 | |
| KE7DJD | 2026-09-05 19:21:46 | 44.72189 | -115.44169 | 30° | 69km/h | 5378m | -5.6m/s | -11.9°C | 15.1% | 0hPa | 0V | 07:53:00 | 00:00:00 | 00:00:00 | |
| KE7DJD | 2026-09-05 19:21:25 | 44.71852 | -115.44444 | 31° | 77km/h | 5492m | -6.0m/s | -12.3°C | 11.9% | 0hPa | 0V | 07:53:00 | 00:00:00 | 00:00:00 | |
| KE7DJD | 2026-09-05 19:21:04 | 44.71481 | -115.44727 | 27° | 80km/h | 5609m | -5.6m/s | -13.0°C | 14.4% | 0hPa | 0V | 07:53:00 | 00:00:00 | 00:00:00 | |
| KE7DJD | 2026-09-05 19:20:44 | 44.71111 | -115.44975 | 25° | 80km/h | 5724m | -5.8m/s | -13.7°C | 11.7% | 0hPa | 0V | 07:53:00 | 00:00:00 | 00:00:00 | |
| KE7DJD | 2026-09-05 19:20:23 | 44.70703 | -115.45221 | 25° | 86km/h | 5845m | -6.0m/s | -14.4°C | 11.6% | 0hPa | 0V | 07:54:00 | 00:00:00 | 00:00:00 | |
| KE7DJD | 2026-09-05 19:20:03 | 44.70293 | -115.45456 | 23° | 86km/h | 5957m | -6.1m/s | -14.8°C | 11.6% | 0hPa | 0V | 07:54:00 | 00:00:00 | 00:00:00 | |
| KE7DJD | 2026-09-05 19:19:42 | 44.69867 | -115.45702 | 23° | 88km/h | 6082m | -6.2m/s | -15.9°C | 13.6% | 0hPa | 0V | 07:55:00 | 00:00:00 | 00:00:00 | |
| KE7DJD | 2026-09-05 19:19:22 | 44.69456 | -115.45931 | 22° | 89km/h | 6197m | -5.8m/s | -16.9°C | 15.8% | 0hPa | 0V | 07:55:00 | 00:00:00 | 00:00:00 | |
| KE7DJD | 2026-09-05 19:19:01 | 44.69016 | -115.46171 | 23° | 88km/h | 6321m | -6.8m/s | -17.9°C | 21.1% | 0hPa | 0V | 07:55:00 | 00:00:00 | 00:00:00 | |
| KE7DJD | 2026-09-05 19:18:40 | 44.68579 | -115.46416 | 21° | 89km/h | 6448m | -6.1m/s | -19.0°C | 23.7% | 0hPa | 0V | 07:56:00 | 00:00:00 | 00:00:00 | |
| KE7DJD | 2026-09-05 19:18:20 | 44.68151 | -115.46646 | 23° | 91km/h | 6572m | -6.5m/s | -19.9°C | 20.0% | 0hPa | 0V | 07:56:00 | 00:00:00 | 00:00:00 | |
| KE7DJD | 2026-09-05 19:17:59 | 44.67702 | -115.46902 | 24° | 93km/h | 6712m | -6.8m/s | -20.9°C | 10.7% | 0hPa | 0V | 00:00:00 | 00:00:00 | 00:00:00 | |
| KE7DJD | 2026-09-05 17:54:37 | 44.22383 | -115.68616 | 358° | 69km/h | 15863m | 7.1m/s | -55.4°C | 2.0% | 0hPa | 0V | 00:00:00 | 00:00:00 | 00:00:00 | |
| KE7DJD | 2026-09-05 17:54:17 | 44.22061 | -115.68598 | 10° | 46km/h | 15767m | 6.6m/s | -54.8°C | 2.0% | 0hPa | 0V | 00:00:00 | 00:00:00 | 00:00:00 | |
| KE7DJD | 2026-09-05 17:53:57 | 44.21772 | -115.68616 | 10° | 64km/h | 15670m | 5.1m/s | -54.1°C | 1.9% | 0hPa | 0V | 00:00:00 | 00:00:00 | 00:00:00 | |
| KE7DJD | 2026-09-05 17:53:36 | 44.21518 | -115.68670 | 11° | 58km/h | 15562m | 2.9m/s | -53.4°C | 1.9% | 0hPa | 0V | 00:00:00 | 00:00:00 | 00:00:00 | |
| KE7DJD | 2026-09-05 17:53:15 | 44.21292 | -115.68803 | 44° | 40km/h | 15462m | 4.7m/s | -54.7°C | 2.0% | 0hPa | 0V | 00:00:00 | 00:00:00 | 00:00:00 | |
| KE7DJD | 2026-09-05 17:52:55 | 44.21051 | -115.69021 | 33° | 68km/h | 15364m | 5.5m/s | -54.7°C | 2.1% | 0hPa | 0V | 00:00:00 | 00:00:00 | 00:00:00 | |
| KE7DJD | 2026-09-05 17:52:12 | 44.20508 | -115.69605 | 43° | 68km/h | 15162m | 6.3m/s | -54.3°C | 2.1% | 0hPa | 0V | 00:00:00 | 00:00:00 | 00:00:00 | |
| KE7DJD | 2026-09-05 17:51:51 | 44.20193 | -115.69962 | 38° | 91km/h | 15059m | 5.2m/s | -54.2°C | 2.1% | 0hPa | 0V | 00:00:00 | 00:00:00 | 00:00:00 | |
| KE7DJD | 2026-09-05 17:51:31 | 44.19875 | -115.70302 | 38° | 93km/h | 14961m | 4.2m/s | -53.5°C | 2.0% | 0hPa | 0V | 00:00:00 | 00:00:00 | 00:00:00 | |
| KE7DJD | 2026-09-05 17:51:10 | 44.19545 | -115.70658 | 34° | 84km/h | 14860m | 5.6m/s | -53.4°C | 2.0% | 0hPa | 0V | 00:00:00 | 00:00:00 | 00:00:00 | |
| KE7DJD | 2026-09-05 17:50:50 | 44.19243 | -115.71022 | 47° | 71km/h | 14760m | 4.9m/s | -52.9°C | 2.0% | 0hPa | 0V | 00:00:00 | 00:00:00 | 00:00:00 | |
| KE7DJD | 2026-09-05 17:50:29 | 44.18953 | -115.71429 | 43° | 89km/h | 14659m | 3.6m/s | -52.4°C | 1.9% | 0hPa | 0V | 00:00:00 | 00:00:00 | 00:00:00 | |
| KE7DJD | 2026-09-05 17:50:09 | 44.18677 | -115.71853 | 32° | 86km/h | 14565m | 5.3m/s | -52.4°C | 1.9% | 0hPa | 0V | 00:00:00 | 00:00:00 | 00:00:00 | |
| KE7DJD | 2026-09-05 17:49:48 | 44.18338 | -115.72270 | 37° | 102km/h | 14459m | 2.7m/s | -52.1°C | 2.0% | 0hPa | 0V | 00:00:00 | 00:00:00 | 00:00:00 | |
| KE7DJD | 2026-09-05 17:49:28 | 44.17956 | -115.72614 | 43° | 91km/h | 14360m | 6.5m/s | -51.6°C | 1.9% | 0hPa | 0V | 00:00:00 | 00:00:00 | 00:00:00 | |
| KE7DJD | 2026-09-05 17:49:07 | 44.17505 | -115.72944 | 33° | 95km/h | 14263m | 5.2m/s | -51.6°C | 2.0% | 0hPa | 0V | 00:00:00 | 00:00:00 | 00:00:00 | |
| KE7DJD | 2026-09-05 17:48:47 | 44.17061 | -115.73245 | 34° | 89km/h | 14172m | 4.7m/s | -51.7°C | 2.1% | 0hPa | 0V | 00:00:00 | 00:00:00 | 00:00:00 | |
| KE7DJD | 2026-09-05 17:48:26 | 44.16582 | -115.73539 | 22° | 97km/h | 14073m | 5.7m/s | -52.0°C | 2.3% | 0hPa | 0V | 00:00:00 | 00:00:00 | 00:00:00 | |
| KE7DJD | 2026-09-05 17:48:06 | 44.16127 | -115.73782 | 26° | 99km/h | 13981m | 2.9m/s | -51.8°C | 2.2% | 0hPa | 0V | 00:00:00 | 00:00:00 | 00:00:00 | |
| KE7DJD | 2026-09-05 17:47:46 | 44.15689 | -115.74010 | 17° | 89km/h | 13885m | 6.0m/s | -51.7°C | 2.3% | 0hPa | 0V | 00:00:00 | 00:00:00 | 00:00:00 | |
| KE7DJD | 2026-09-05 17:47:25 | 44.15219 | -115.74282 | 20° | 100km/h | 13782m | 5.6m/s | -51.1°C | 2.2% | 0hPa | 0V | 00:00:00 | 00:00:00 | 00:00:00 | |
| KE7DJD | 2026-09-05 17:47:04 | 44.14765 | -115.74601 | 35° | 93km/h | 13680m | 5.7m/s | -50.6°C | 2.0% | 0hPa | 0V | 00:00:00 | 00:00:00 | 00:00:00 | |
| KE7DJD | 2026-09-05 17:46:44 | 44.14332 | -115.74930 | 38° | 108km/h | 13585m | 3.8m/s | -51.0°C | 2.0% | 0hPa | 0V | 00:00:00 | 00:00:00 | 00:00:00 | |
| KE7DJD | 2026-09-05 17:46:24 | 44.13880 | -115.75280 | 35° | 113km/h | 13492m | 5.3m/s | -50.8°C | 2.1% | 0hPa | 0V | 00:00:00 | 00:00:00 | 00:00:00 | |
| KE7DJD | 2026-09-05 17:46:03 | 44.13385 | -115.75678 | 29° | 120km/h | 13395m | 3.5m/s | -50.4°C | 2.0% | 0hPa | 0V | 00:00:00 | 00:00:00 | 00:00:00 | |
| KE7DJD | 2026-09-05 17:45:43 | 44.12888 | -115.76065 | 28° | 115km/h | 13300m | 4.0m/s | -49.6°C | 2.0% | 0hPa | 0V | 00:00:00 | 00:00:00 | 00:00:00 | |
| KE7DJD | 2026-09-05 17:45:23 | 44.12428 | -115.76425 | 24° | 97km/h | 13209m | 6.4m/s | -49.2°C | 2.0% | 0hPa | 0V | 00:00:00 | 00:00:00 | 00:00:00 | |
| KE7DJD | 2026-09-05 17:45:01 | 44.11964 | -115.76824 | 30° | 89km/h | 13113m | 2.9m/s | -48.7°C | 2.0% | 0hPa | 0V | 00:00:00 | 00:00:00 | 00:00:00 | |
| KE7DJD | 2026-09-05 17:44:40 | 44.11515 | -115.77268 | 42° | 119km/h | 13018m | 5.2m/s | -49.0°C | 2.4% | 0hPa | 0V | 00:00:00 | 00:00:00 | 00:00:00 | |
| KE7DJD | 2026-09-05 17:44:19 | 44.11028 | -115.77729 | 46° | 117km/h | 12926m | 3.1m/s | -49.2°C | 2.7% | 0hPa | 0V | 00:00:00 | 00:00:00 | 00:00:00 | |
| KE7DJD | 2026-09-05 17:43:59 | 44.10540 | -115.78181 | 33° | 119km/h | 12836m | 4.7m/s | -49.3°C | 3.0% | 0hPa | 0V | 00:00:00 | 00:00:00 | 00:00:00 | |
| KE7DJD | 2026-09-05 17:43:39 | 44.10028 | -115.78647 | 36° | 117km/h | 12747m | 6.2m/s | -49.6°C | 3.0% | 0hPa | 0V | 00:00:00 | 00:00:00 | 00:00:00 | |
| KE7DJD | 2026-09-05 17:43:19 | 44.09526 | -115.79123 | 40° | 122km/h | 12656m | 3.5m/s | -49.2°C | 3.1% | 0hPa | 0V | 00:00:00 | 00:00:00 | 00:00:00 | |
| KE7DJD | 2026-09-05 17:42:58 | 44.09003 | -115.79628 | 31° | 113km/h | 12560m | 2.7m/s | -49.1°C | 3.3% | 0hPa | 0V | 00:00:00 | 00:00:00 | 00:00:00 | |
| KE7DJD | 2026-09-05 17:42:37 | 44.08465 | -115.80152 | 41° | 135km/h | 12463m | 5.8m/s | -49.1°C | 3.6% | 0hPa | 0V | 00:00:00 | 00:00:00 | 00:00:00 | |
| KE7DJD | 2026-09-05 17:42:16 | 44.07920 | -115.80699 | 41° | 128km/h | 12369m | 2.9m/s | -49.1°C | 4.0% | 0hPa | 0V | 00:00:00 | 00:00:00 | 00:00:00 | |
| KE7DJD | 2026-09-05 17:41:55 | 44.07344 | -115.81278 | 37° | 135km/h | 12272m | 6.1m/s | -49.1°C | 4.3% | 0hPa | 0V | 00:00:00 | 00:00:00 | 00:00:00 | |
| KE7DJD | 2026-09-05 17:41:34 | 44.06753 | -115.81869 | 36° | 139km/h | 12180m | 5.5m/s | -49.0°C | 4.6% | 0hPa | 0V | 00:00:00 | 00:00:00 | 00:00:00 | |
| KE7DJD | 2026-09-05 17:41:14 | 44.06186 | -115.82450 | 42° | 135km/h | 12092m | 4.4m/s | -50.0°C | 6.0% | 0hPa | 0V | 00:00:00 | 00:00:00 | 00:00:00 | |
| KE7DJD | 2026-09-05 17:40:53 | 44.05562 | -115.83133 | 40° | 146km/h | 12001m | 4.3m/s | -50.5°C | 7.0% | 0hPa | 0V | 00:00:00 | 00:00:00 | 00:00:00 | |
| KE7DJD | 2026-09-05 17:40:33 | 44.04945 | -115.83748 | 35° | 141km/h | 11911m | 5.3m/s | -50.4°C | 7.0% | 0hPa | 0V | 00:00:00 | 00:00:00 | 00:00:00 | |
| KE7DJD | 2026-09-05 17:40:11 | 44.04256 | -115.84386 | 33° | 128km/h | 11821m | 5.0m/s | -49.8°C | 6.8% | 0hPa | 0V | 00:00:00 | 00:00:00 | 00:00:00 | |
| KE7DJD | 2026-09-05 17:39:51 | 44.03649 | -115.84945 | 36° | 142km/h | 11735m | 5.2m/s | -49.6°C | 8.6% | 0hPa | 0V | 00:00:00 | 00:00:00 | 00:00:00 | |
| KE7DJD | 2026-09-05 17:39:31 | 44.03050 | -115.85570 | 36° | 157km/h | 11651m | 3.6m/s | -50.7°C | 11.1% | 0hPa | 0V | 00:00:00 | 00:00:00 | 00:00:00 | |
| KE7DJD | 2026-09-05 17:39:10 | 44.02390 | -115.86292 | 42° | 153km/h | 11560m | 3.6m/s | -50.8°C | 16.9% | 0hPa | 0V | 00:00:00 | 00:00:00 | 00:00:00 | |
| KE7DJD | 2026-09-05 17:38:50 | 44.01727 | -115.87009 | 38° | 159km/h | 11475m | 4.9m/s | -50.8°C | 19.9% | 0hPa | 0V | 00:00:00 | 00:00:00 | 00:00:00 | |
| KE7DJD | 2026-09-05 17:38:30 | 44.01036 | -115.87707 | 39° | 173km/h | 11389m | 3.9m/s | -50.6°C | 20.0% | 0hPa | 0V | 00:00:00 | 00:00:00 | 00:00:00 | |
| KE7DJD | 2026-09-05 17:38:10 | 44.00334 | -115.88377 | 33° | 159km/h | 11299m | 3.7m/s | -49.9°C | 17.5% | 0hPa | 0V | 00:00:00 | 00:00:00 | 00:00:00 | |
| KE7DJD | 2026-09-05 17:37:49 | 43.99577 | -115.89053 | 32° | 172km/h | 11207m | 5.2m/s | -49.6°C | 15.3% | 0hPa | 0V | 00:00:00 | 00:00:00 | 00:00:00 | |
| KE7DJD | 2026-09-05 17:37:28 | 43.98819 | -115.89714 | 32° | 173km/h | 11113m | 5.6m/s | -49.6°C | 18.3% | 0hPa | 0V | 00:00:00 | 00:00:00 | 00:00:00 | |
| KE7DJD | 2026-09-05 17:37:07 | 43.98068 | -115.90389 | 40° | 161km/h | 11017m | 3.1m/s | -49.8°C | 21.2% | 0hPa | 0V | 00:00:00 | 00:00:00 | 00:00:00 | |
| KE7DJD | 2026-09-05 17:36:46 | 43.97338 | -115.91073 | 39° | 155km/h | 10927m | 3.1m/s | -49.9°C | 25.2% | 0hPa | 0V | 00:00:00 | 00:00:00 | 00:00:00 | |
| KE7DJD | 2026-09-05 17:36:26 | 43.96660 | -115.91753 | 36° | 168km/h | 10841m | 5.3m/s | -49.7°C | 30.3% | 0hPa | 0V | 00:00:00 | 00:00:00 | 00:00:00 | |
| KE7DJD | 2026-09-05 17:36:05 | 43.95923 | -115.92460 | 31° | 177km/h | 10748m | 4.0m/s | -49.0°C | 34.1% | 0hPa | 0V | 00:00:00 | 00:00:00 | 00:00:00 | |
| KE7DJD | 2026-09-05 17:35:46 | 43.95214 | -115.93106 | 28° | 172km/h | 10660m | 3.7m/s | -48.5°C | 40.9% | 0hPa | 0V | 00:00:00 | 00:00:00 | 00:00:00 | |
| KE7DJD | 2026-09-05 17:35:24 | 43.94456 | -115.93736 | 32° | 175km/h | 10570m | 2.1m/s | -48.2°C | 45.1% | 0hPa | 0V | 00:00:00 | 00:00:00 | 00:00:00 | |
| KE7DJD | 2026-09-05 17:35:04 | 43.93761 | -115.94327 | 37° | 148km/h | 10483m | 2.5m/s | -47.7°C | 46.2% | 0hPa | 0V | 00:00:00 | 00:00:00 | 00:00:00 | |
| KE7DJD | 2026-09-05 17:34:43 | 43.93048 | -115.94986 | 36° | 168km/h | 10389m | 3.8m/s | -47.2°C | 38.6% | 0hPa | 0V | 00:00:00 | 00:00:00 | 00:00:00 | |
| KE7DJD | 2026-09-05 17:34:23 | 43.92375 | -115.95577 | 35° | 157km/h | 10300m | 4.0m/s | -46.8°C | 50.2% | 0hPa | 0V | 00:00:00 | 00:00:00 | 00:00:00 | |
| KE7DJD | 2026-09-05 17:34:03 | 43.91695 | -115.96137 | 30° | 157km/h | 10210m | 4.4m/s | -46.1°C | 63.5% | 0hPa | 0V | 00:00:00 | 00:00:00 | 00:00:00 | |
| KE7DJD | 2026-09-05 17:33:43 | 43.91031 | -115.96675 | 26° | 157km/h | 10122m | 3.9m/s | -45.7°C | 54.6% | 0hPa | 0V | 00:00:00 | 00:00:00 | 00:00:00 | |
| KE7DJD | 2026-09-05 17:33:22 | 43.90337 | -115.97221 | 31° | 148km/h | 10034m | 4.7m/s | -44.8°C | 51.4% | 0hPa | 0V | 00:00:00 | 00:00:00 | 00:00:00 | |
| KE7DJD | 2026-09-05 17:33:01 | 43.89659 | -115.97768 | 33° | 151km/h | 9943m | 3.7m/s | -44.0°C | 45.9% | 0hPa | 0V | 00:00:00 | 00:00:00 | 00:00:00 | |
| KE7DJD | 2026-09-05 17:32:41 | 43.89021 | -115.98293 | 32° | 142km/h | 9854m | 5.8m/s | -43.5°C | 44.4% | 0hPa | 0V | 00:00:00 | 00:00:00 | 00:00:00 | |
| KE7DJD | 2026-09-05 17:32:21 | 43.88399 | -115.98805 | 30° | 150km/h | 9769m | 2.6m/s | -42.9°C | 50.2% | 0hPa | 0V | 00:00:00 | 00:00:00 | 00:00:00 | |
| KE7DJD | 2026-09-05 17:32:01 | 43.87782 | -115.99318 | 36° | 146km/h | 9681m | 5.8m/s | -42.1°C | 44.9% | 0hPa | 0V | 00:00:00 | 00:00:00 | 00:00:00 | |
| KE7DJD | 2026-09-05 17:31:40 | 43.87140 | -115.99861 | 29° | 139km/h | 9588m | 5.1m/s | -41.4°C | 43.3% | 0hPa | 0V | 00:00:00 | 00:00:00 | 00:00:00 | |
| KE7DJD | 2026-09-05 17:31:19 | 43.86508 | -116.00388 | 30° | 142km/h | 9501m | 4.6m/s | -40.6°C | 47.4% | 0hPa | 0V | 00:00:00 | 00:00:00 | 00:00:00 | |
| KE7DJD | 2026-09-05 17:30:59 | 43.85869 | -116.00912 | 31° | 135km/h | 9412m | 4.6m/s | -39.8°C | 51.0% | 0hPa | 0V | 00:00:00 | 00:00:00 | 00:00:00 | |
| KE7DJD | 2026-09-05 17:30:17 | 43.84629 | -116.01938 | 37° | 139km/h | 9235m | 3.5m/s | -38.6°C | 28.1% | 0hPa | 0V | 00:00:00 | 00:00:00 | 00:00:00 | |
| KE7DJD | 2026-09-05 17:29:56 | 43.83997 | -116.02435 | 29° | 142km/h | 9146m | 4.3m/s | -37.9°C | 28.7% | 0hPa | 0V | 00:00:00 | 00:00:00 | 00:00:00 | |
| KE7DJD | 2026-09-05 17:29:36 | 43.83394 | -116.02895 | 25° | 128km/h | 9060m | 4.4m/s | -37.0°C | 23.4% | 0hPa | 0V | 00:00:00 | 00:00:00 | 00:00:00 | |
| KE7DJD | 2026-09-05 17:29:15 | 43.82766 | -116.03381 | 29° | 135km/h | 8970m | 5.2m/s | -36.5°C | 27.2% | 0hPa | 0V | 00:00:00 | 00:00:00 | 00:00:00 | |
| KE7DJD | 2026-09-05 17:28:54 | 43.82144 | -116.03859 | 29° | 128km/h | 8877m | 4.8m/s | -35.7°C | 24.0% | 0hPa | 0V | 00:00:00 | 00:00:00 | 00:00:00 | |
| KE7DJD | 2026-09-05 17:28:34 | 43.81558 | -116.04311 | 33° | 117km/h | 8789m | 3.8m/s | -35.2°C | 29.6% | 0hPa | 0V | 00:00:00 | 00:00:00 | 00:00:00 | |
| KE7DJD | 2026-09-05 17:28:13 | 43.80940 | -116.04794 | 32° | 137km/h | 8699m | 5.5m/s | -34.5°C | 32.8% | 0hPa | 0V | 00:00:00 | 00:00:00 | 00:00:00 | |
| KE7DJD | 2026-09-05 17:27:53 | 43.80360 | -116.05248 | 26° | 135km/h | 8615m | 3.2m/s | -33.8°C | 33.2% | 0hPa | 0V | 00:00:00 | 00:00:00 | 00:00:00 | |
| KE7DJD | 2026-09-05 17:27:32 | 43.79761 | -116.05730 | 27° | 126km/h | 8522m | 4.3m/s | -32.9°C | 31.5% | 0hPa | 0V | 00:00:00 | 00:00:00 | 00:00:00 | |
| KE7DJD | 2026-09-05 17:27:12 | 43.79187 | -116.06199 | 33° | 135km/h | 8435m | 4.6m/s | -32.2°C | 30.0% | 0hPa | 0V | 00:00:00 | 00:00:00 | 00:00:00 | |
| KE7DJD | 2026-09-05 17:26:51 | 43.78592 | -116.06682 | 32° | 124km/h | 8346m | 5.4m/s | -31.4°C | 28.0% | 0hPa | 0V | 00:00:00 | 00:00:00 | 00:00:00 | |
| KE7DJD | 2026-09-05 17:26:30 | 43.78000 | -116.07155 | 31° | 130km/h | 8258m | 4.7m/s | -30.6°C | 27.6% | 0hPa | 0V | 00:00:00 | 00:00:00 | 00:00:00 | |
| KE7DJD | 2026-09-05 17:26:10 | 43.77427 | -116.07600 | 33° | 139km/h | 8173m | 3.6m/s | -29.9°C | 25.7% | 0hPa | 0V | 00:00:00 | 00:00:00 | 00:00:00 | |
| KE7DJD | 2026-09-05 17:25:49 | 43.76822 | -116.08057 | 31° | 133km/h | 8084m | 3.1m/s | -29.1°C | 21.8% | 0hPa | 0V | 00:00:00 | 00:00:00 | 00:00:00 | |
| KE7DJD | 2026-09-05 17:25:28 | 43.76226 | -116.08517 | 34° | 142km/h | 7997m | 3.5m/s | -28.2°C | 20.9% | 0hPa | 0V | 00:00:00 | 00:00:00 | 00:00:00 | |
| KE7DJD | 2026-09-05 17:25:07 | 43.75649 | -116.08984 | 25° | 128km/h | 7908m | 3.7m/s | -27.7°C | 22.4% | 0hPa | 0V | 00:00:00 | 00:00:00 | 00:00:00 | |
| KE7DJD | 2026-09-05 17:24:27 | 43.74637 | -116.09892 | 29° | 133km/h | 7661m | 7.7m/s | -26.0°C | 21.0% | 0hPa | 0V | 00:00:00 | 00:00:00 | 00:00:00 | |
| KE7DJD | 2026-09-05 17:24:06 | 43.74116 | -116.10282 | 21° | 124km/h | 7528m | 6.5m/s | -25.0°C | 19.3% | 0hPa | 0V | 00:00:00 | 00:00:00 | 00:00:00 | |
| KE7DJD | 2026-09-05 17:23:46 | 43.73597 | -116.10608 | 26° | 102km/h | 7422m | 3.8m/s | -24.1°C | 19.7% | 0hPa | 0V | 00:00:00 | 00:00:00 | 00:00:00 | |
| KE7DJD | 2026-09-05 17:23:27 | 43.73058 | -116.10920 | 20° | 119km/h | 7329m | 4.2m/s | -23.3°C | 19.3% | 0hPa | 0V | 00:00:00 | 00:00:00 | 00:00:00 | |
| KE7DJD | 2026-09-05 17:23:05 | 43.72494 | -116.11279 | 31° | 128km/h | 7230m | 3.3m/s | -22.8°C | 18.1% | 0hPa | 0V | 00:00:00 | 00:00:00 | 00:00:00 | |
| KE7DJD | 2026-09-05 17:22:44 | 43.71950 | -116.11664 | 27° | 115km/h | 7132m | 4.9m/s | -22.3°C | 12.6% | 0hPa | 0V | 00:00:00 | 00:00:00 | 00:00:00 | |
| KE7DJD | 2026-09-05 17:22:24 | 43.71471 | -116.12036 | 31° | 113km/h | 7033m | 6.0m/s | -21.8°C | 9.0% | 0hPa | 0V | 00:00:00 | 00:00:00 | 00:00:00 | |
| KE7DJD | 2026-09-05 17:22:03 | 43.70996 | -116.12396 | 27° | 97km/h | 6930m | 4.3m/s | -21.3°C | 7.3% | 0hPa | 0V | 00:00:00 | 00:00:00 | 00:00:00 | |
| KE7DJD | 2026-09-05 17:21:42 | 43.70519 | -116.12726 | 30° | 110km/h | 6835m | 5.0m/s | -20.5°C | 6.8% | 0hPa | 0V | 00:00:00 | 00:00:00 | 00:00:00 | |
| KE7DJD | 2026-09-05 17:21:22 | 43.70066 | -116.13050 | 29° | 104km/h | 6747m | 4.8m/s | -20.0°C | 7.0% | 0hPa | 0V | 00:00:00 | 00:00:00 | 00:00:00 | |
| KE7DJD | 2026-09-05 17:21:01 | 43.69619 | -116.13367 | 37° | 99km/h | 6652m | 4.1m/s | -19.7°C | 8.8% | 0hPa | 0V | 00:00:00 | 00:00:00 | 00:00:00 | |
| KE7DJD | 2026-09-05 17:20:40 | 43.69207 | -116.13676 | 25° | 84km/h | 6560m | 4.2m/s | -19.3°C | 15.6% | 0hPa | 0V | 00:00:00 | 00:00:00 | 00:00:00 | |
| KE7DJD | 2026-09-05 17:20:20 | 43.68832 | -116.13960 | 32° | 88km/h | 6477m | 4.3m/s | -18.5°C | 17.0% | 0hPa | 0V | 00:00:00 | 00:00:00 | 00:00:00 | |
| KE7DJD | 2026-09-05 17:19:59 | 43.68434 | -116.14252 | 34° | 78km/h | 6386m | 3.2m/s | -17.9°C | 18.4% | 0hPa | 0V | 00:00:00 | 00:00:00 | 00:00:00 | |
| KE7DJD | 2026-09-05 17:19:38 | 43.68040 | -116.14546 | 25° | 89km/h | 6300m | 4.9m/s | -17.2°C | 18.1% | 0hPa | 0V | 00:00:00 | 00:00:00 | 00:00:00 | |
| KE7DJD | 2026-09-05 17:19:18 | 43.67667 | -116.14822 | 28° | 89km/h | 6218m | 4.9m/s | -16.6°C | 20.5% | 0hPa | 0V | 00:00:00 | 00:00:00 | 00:00:00 | |
| KE7DJD | 2026-09-05 17:18:57 | 43.67275 | -116.15116 | 38° | 78km/h | 6132m | 3.4m/s | -15.9°C | 19.3% | 0hPa | 0V | 00:00:00 | 00:00:00 | 00:00:00 | |
| KE7DJD | 2026-09-05 17:18:37 | 43.66898 | -116.15367 | 30° | 91km/h | 6050m | 5.2m/s | -15.3°C | 20.0% | 0hPa | 0V | 00:00:00 | 00:00:00 | 00:00:00 | |
| KE7DJD | 2026-09-05 17:18:17 | 43.66523 | -116.15609 | 26° | 84km/h | 5968m | 4.3m/s | -14.5°C | 17.5% | 0hPa | 0V | 00:00:00 | 00:00:00 | 00:00:00 | |
| KE7DJD | 2026-09-05 17:17:57 | 43.66137 | -116.15839 | 17° | 82km/h | 5886m | 5.4m/s | -13.9°C | 16.3% | 0hPa | 0V | 00:00:00 | 00:00:00 | 00:00:00 | |
| KE7DJD | 2026-09-05 17:17:36 | 43.65730 | -116.16077 | 33° | 84km/h | 5799m | 5.0m/s | -13.2°C | 14.0% | 0hPa | 0V | 00:00:00 | 00:00:00 | 00:00:00 | |
| KE7DJD | 2026-09-05 17:17:16 | 43.65362 | -116.16349 | 34° | 82km/h | 5682m | 7.4m/s | -12.4°C | 14.4% | 0hPa | 0V | 00:00:00 | 00:00:00 | 00:00:00 | |
| KE7DJD | 2026-09-05 17:16:55 | 43.64962 | -116.16590 | 26° | 89km/h | 5567m | 3.6m/s | -11.4°C | 10.1% | 0hPa | 0V | 00:00:00 | 00:00:00 | 00:00:00 | |
| KE7DJD | 2026-09-05 17:16:34 | 43.64553 | -116.16829 | 22° | 78km/h | 5481m | 4.5m/s | -10.9°C | 11.0% | 0hPa | 0V | 00:00:00 | 00:00:00 | 00:00:00 | |
| KE7DJD | 2026-09-05 17:16:14 | 43.64192 | -116.17069 | 27° | 66km/h | 5394m | 4.2m/s | -10.6°C | 9.9% | 0hPa | 0V | 00:00:00 | 00:00:00 | 00:00:00 | |
| KE7DJD | 2026-09-05 17:15:54 | 43.63838 | -116.17321 | 29° | 80km/h | 5312m | 4.6m/s | -9.9°C | 10.7% | 0hPa | 0V | 00:00:00 | 00:00:00 | 00:00:00 | |
| KE7DJD | 2026-09-05 17:15:33 | 43.63468 | -116.17601 | 41° | 86km/h | 5224m | 4.9m/s | -9.2°C | 8.2% | 0hPa | 0V | 00:00:00 | 00:00:00 | 00:00:00 | |
| KE7DJD | 2026-09-05 17:15:13 | 43.63112 | -116.17888 | 31° | 69km/h | 5126m | 3.8m/s | -8.5°C | 6.5% | 0hPa | 0V | 00:00:00 | 00:00:00 | 00:00:00 | |
| KE7DJD | 2026-09-05 17:14:51 | 43.62763 | -116.18209 | 37° | 89km/h | 5030m | 7.3m/s | -8.1°C | 5.7% | 0hPa | 0V | 00:00:00 | 00:00:00 | 00:00:00 | |
| KE7DJD | 2026-09-05 17:14:31 | 43.62467 | -116.18508 | 16° | 60km/h | 4901m | 4.8m/s | -7.7°C | 5.0% | 0hPa | 0V | 00:00:00 | 00:00:00 | 00:00:00 | |
| KE7DJD | 2026-09-05 17:14:10 | 43.62184 | -116.18747 | 43° | 73km/h | 4786m | 4.2m/s | -7.2°C | 8.5% | 0hPa | 0V | 00:00:00 | 00:00:00 | 00:00:00 | |
| KE7DJD | 2026-09-05 17:13:49 | 43.61902 | -116.19008 | 35° | 80km/h | 4686m | 4.2m/s | -6.8°C | 6.3% | 0hPa | 0V | 00:00:00 | 00:00:00 | 00:00:00 | |
| KE7DJD | 2026-09-05 17:13:29 | 43.61632 | -116.19248 | 46° | 64km/h | 4590m | 6.9m/s | -6.7°C | 11.8% | 0hPa | 0V | 00:00:00 | 00:00:00 | 00:00:00 | |
| KE7DJD | 2026-09-05 17:13:08 | 43.61388 | -116.19429 | 15° | 62km/h | 4467m | 4.8m/s | -5.9°C | 12.7% | 0hPa | 0V | 00:00:00 | 00:00:00 | 00:00:00 | |
| KE7DJD | 2026-09-05 17:12:47 | 43.61117 | -116.19593 | 38° | 55km/h | 4351m | 5.1m/s | -5.5°C | 16.2% | 0hPa | 0V | 00:00:00 | 00:00:00 | 00:00:00 | |
| KE7DJD | 2026-09-05 17:12:26 | 43.60855 | -116.19726 | 27° | 75km/h | 4227m | 6.0m/s | -6.0°C | 60.7% | 0hPa | 0V | 00:00:00 | 00:00:00 | 00:00:00 | |
| KE7DJD | 2026-09-05 17:12:06 | 43.60548 | -116.19886 | 34° | 55km/h | 4111m | 5.6m/s | -5.3°C | 83.8% | 0hPa | 0V | 00:00:00 | 00:00:00 | 00:00:00 | |
| KE7DJD | 2026-09-05 17:11:45 | 43.60255 | -116.20063 | 37° | 60km/h | 4005m | 4.4m/s | -4.5°C | 85.6% | 0hPa | 0V | 00:00:00 | 00:00:00 | 00:00:00 | |
| KE7DJD | 2026-09-05 17:11:25 | 43.59947 | -116.20221 | 11° | 62km/h | 3896m | 4.9m/s | -3.6°C | 83.5% | 0hPa | 0V | 00:00:00 | 00:00:00 | 00:00:00 | |
| KE7DJD | 2026-09-05 17:11:04 | 43.59644 | -116.20394 | 9° | 51km/h | 3776m | 5.2m/s | -2.5°C | 85.7% | 0hPa | 0V | 00:00:00 | 00:00:00 | 00:00:00 | |
| KE7DJD | 2026-09-05 17:10:44 | 43.59357 | -116.20575 | 18° | 55km/h | 3656m | 4.8m/s | -1.6°C | 82.1% | 0hPa | 0V | 00:00:00 | 00:00:00 | 00:00:00 | |
| KE7DJD | 2026-09-05 17:10:22 | 43.59098 | -116.20841 | 49° | 58km/h | 3538m | 5.9m/s | -1.1°C | 51.9% | 0hPa | 0V | 00:00:00 | 00:00:00 | 00:00:00 | |
| KE7DJD | 2026-09-05 17:10:02 | 43.58900 | -116.21040 | 52° | 53km/h | 3412m | 5.6m/s | -0.5°C | 45.0% | 0hPa | 0V | 00:00:00 | 00:00:00 | 00:00:00 | |
| KE7DJD | 2026-09-05 17:09:41 | 43.58725 | -116.21180 | 40° | 47km/h | 3303m | 5.5m/s | -0.1°C | 70.8% | 0hPa | 0V | 00:00:00 | 00:00:00 | 00:00:00 | |
| KE7DJD | 2026-09-05 17:09:21 | 43.58521 | -116.21277 | 2° | 47km/h | 3191m | 4.6m/s | 0.8°C | 73.6% | 0hPa | 0V | 00:00:00 | 00:00:00 | 00:00:00 | |
| KE7DJD | 2026-09-05 17:09:00 | 43.58318 | -116.21380 | 28° | 20km/h | 3073m | 5.3m/s | 1.8°C | 70.0% | 0hPa | 0V | 00:00:00 | 00:00:00 | 00:00:00 | |
| KE7DJD | 2026-09-05 17:08:39 | 43.58137 | -116.21442 | 32° | 18km/h | 2963m | 5.3m/s | 2.6°C | 67.0% | 0hPa | 0V | 00:00:00 | 00:00:00 | 00:00:00 | |
| KE7DJD | 2026-09-05 17:08:18 | 43.57991 | -116.21538 | 51° | 42km/h | 2859m | 4.2m/s | 3.4°C | 59.8% | 0hPa | 0V | 00:00:00 | 00:00:00 | 00:00:00 | |
| KE7DJD | 2026-09-05 17:07:57 | 43.57850 | -116.21643 | 355° | 31km/h | 2751m | 6.4m/s | 4.1°C | 56.0% | 0hPa | 0V | 00:00:00 | 00:00:00 | 00:00:00 | |
| KE7DJD | 2026-09-05 17:07:37 | 43.57749 | -116.21668 | 33° | 13km/h | 2642m | 6.6m/s | 4.6°C | 68.3% | 0hPa | 0V | 00:00:00 | 00:00:00 | 00:00:00 | |
| KE7DJD | 2026-09-05 17:07:16 | 43.57654 | -116.21670 | 323° | 31km/h | 2530m | 6.5m/s | 5.4°C | 73.8% | 0hPa | 0V | 00:00:00 | 00:00:00 | 00:00:00 | |
| KE7DJD | 2026-09-05 17:06:56 | 43.57545 | -116.21641 | 322° | 18km/h | 2430m | 6.4m/s | 6.3°C | 67.1% | 0hPa | 0V | 00:00:00 | 00:00:00 | 00:00:00 | |
| KE7DJD | 2026-09-05 17:06:35 | 43.57432 | -116.21623 | 24° | 26km/h | 2316m | 4.9m/s | 7.4°C | 57.6% | 0hPa | 0V | 00:00:00 | 00:00:00 | 00:00:00 | |
| KE7DJD | 2026-09-05 17:06:15 | 43.57331 | -116.21590 | 16° | 20km/h | 2220m | 4.4m/s | 8.1°C | 49.0% | 0hPa | 0V | 00:00:00 | 00:00:00 | 00:00:00 | |
| KE7DJD | 2026-09-05 17:05:54 | 43.57210 | -116.21542 | 27° | 20km/h | 2101m | 6.3m/s | 8.8°C | 46.1% | 0hPa | 0V | 00:00:00 | 00:00:00 | 00:00:00 | |
| KE7DJD | 2026-09-05 17:05:33 | 43.57139 | -116.21483 | 310° | 22km/h | 1986m | 6.6m/s | 9.8°C | 43.4% | 0hPa | 0V | 00:00:00 | 00:00:00 | 00:00:00 | |
| KE7DJD | 2026-09-05 17:05:13 | 43.57061 | -116.21443 | 28° | 18km/h | 1879m | 3.9m/s | 10.3°C | 55.1% | 0hPa | 0V | 00:00:00 | 00:00:00 | 00:00:00 | |
| KE7DJD | 2026-09-05 17:04:53 | 43.56978 | -116.21410 | 291° | 22km/h | 1768m | 5.0m/s | 10.4°C | 63.1% | 0hPa | 0V | 00:00:00 | 00:00:00 | 00:00:00 | |
| KE7DJD | 2026-09-05 17:04:35 | 43.56935 | -116.21362 | 174° | 5km/h | 1664m | 5.0m/s | 10.9°C | 63.1% | 0hPa | 0V | 00:00:00 | 00:00:00 | 00:00:00 | |
| KE7DJD | 2026-09-05 17:04:11 | 43.56871 | -116.21293 | 307° | 29km/h | 1551m | 4.7m/s | 11.6°C | 55.9% | 0hPa | 0V | 00:00:00 | 00:00:00 | 00:00:00 | |
| KE7DJD | 2026-09-05 17:03:51 | 43.56842 | -116.21202 | 300° | 35km/h | 1446m | 6.7m/s | 0°C | 0% | 0hPa | 0V | 00:00:00 | 00:00:00 | 00:00:00 | |
| KE7DJD | 2026-09-05 17:03:31 | 43.56811 | -116.21091 | 330° | 16km/h | 1332m | 7.0m/s | 0°C | 0% | 0hPa | 0V | 00:00:00 | 00:00:00 | 00:00:00 | |
| KE7DJD | 2026-09-05 17:03:10 | 43.56780 | -116.21020 | 193° | 7km/h | 1207m | 6.2m/s | 0°C | 0% | 0hPa | 0V | 00:00:00 | 00:00:00 | 00:00:00 |